Time;durP1;ratioP1;P1;durP2;ratioP2;P2;SDS_P1;SDS_P2;PMS_P1;PMS_P2;Temp;Humidity;BMP_temperature;BMP_pressure;BME280_temperature;BME280_humidity;BME280_pressure;Samples;Min_cycle;Max_cycle;Signal;HPM_P1;HPM_P2
2023/03/14 00:02:06;;;;;;;16.17;3.72;;;10.70;99.90;;;;;;4976279;28;93104;-76
2023/03/14 00:04:33;;;;;;;17.52;3.72;;;10.80;99.90;;;;;;4976333;28;92381;-76
2023/03/14 00:07:00;;;;;;;20.63;4.30;;;10.80;99.90;;;;;;4975913;28;96430;-76
2023/03/14 00:09:29;;;;;;;20.38;4.85;;;10.80;99.90;;;;;;4974487;28;95724;-76
2023/03/14 00:11:57;;;;;;;19.65;4.32;;;10.80;99.90;;;;;;4974491;28;95449;-76
2023/03/14 00:14:23;;;;;;;19.05;4.10;;;10.90;99.90;;;;;;4976275;28;92550;-76
2023/03/14 00:16:50;;;;;;;16.70;4.30;;;10.90;99.90;;;;;;4975968;28;92501;-76
2023/03/14 00:19:17;;;;;;;11.75;3.30;;;11.00;99.90;;;;;;4974779;28;93330;-76
2023/03/14 00:21:44;;;;;;;20.55;3.63;;;11.10;99.90;;;;;;4974370;28;93065;-76
2023/03/14 00:24:11;;;;;;;19.83;5.07;;;11.10;99.90;;;;;;4976135;28;92558;-76
2023/03/14 00:26:38;;;;;;;19.10;4.18;;;11.20;99.90;;;;;;4974922;28;92106;-76
2023/03/14 00:29:05;;;;;;;16.10;3.70;;;11.30;99.90;;;;;;4974465;28;96008;-76
2023/03/14 00:31:33;;;;;;;16.10;4.10;;;11.40;99.90;;;;;;4975434;28;100425;-76
2023/03/14 00:34:00;;;;;;;15.75;3.97;;;11.40;99.90;;;;;;4973346;28;94824;-76
2023/03/14 00:36:27;;;;;;;16.48;3.95;;;11.40;99.90;;;;;;4958409;28;93243;-76
2023/03/14 00:38:54;;;;;;;15.30;3.70;;;11.50;99.90;;;;;;4974595;28;93283;-76
2023/03/14 00:41:22;;;;;;;18.67;3.90;;;11.50;99.90;;;;;;4974298;28;93983;-76
2023/03/14 00:43:50;;;;;;;20.52;4.13;;;11.50;99.90;;;;;;4974349;28;93093;-76
2023/03/14 00:46:19;;;;;;;14.50;3.72;;;11.50;99.90;;;;;;4974582;28;92736;-76
2023/03/14 00:48:46;;;;;;;19.27;4.45;;;11.60;99.90;;;;;;4957790;28;95682;-76
2023/03/14 00:51:14;;;;;;;17.25;3.50;;;11.70;99.90;;;;;;4975852;28;92977;-76
2023/03/14 00:53:43;;;;;;;17.25;3.95;;;11.70;99.90;;;;;;4974272;28;92467;-76
2023/03/14 00:56:12;;;;;;;21.77;4.32;;;11.70;99.90;;;;;;4974035;28;92529;-76
2023/03/14 00:58:39;;;;;;;9.68;2.97;;;11.70;99.90;;;;;;4972845;28;95671;-76
2023/03/14 01:01:13;;;;;;;12.93;3.85;;;11.70;99.90;;;;;;4975054;28;95337;-76
2023/03/14 01:03:40;;;;;;;12.35;3.72;;;11.70;99.90;;;;;;4973296;28;92644;-76
2023/03/14 01:06:12;;;;;;;11.25;3.60;;;11.60;99.90;;;;;;4957972;28;92622;-76
2023/03/14 01:08:39;;;;;;;14.07;4.53;;;11.70;99.90;;;;;;4973701;28;95797;-76
2023/03/14 01:11:12;;;;;;;11.65;4.35;;;11.70;99.90;;;;;;4975296;28;93117;-76
2023/03/14 01:13:39;;;;;;;11.90;4.73;;;11.70;99.90;;;;;;4957917;28;92580;-76
2023/03/14 01:16:08;;;;;;;12.52;5.00;;;11.80;99.90;;;;;;4974396;28;91801;-76
2023/03/14 01:18:38;;;;;;;10.38;4.68;;;11.70;99.90;;;;;;4973522;28;94375;-76
2023/03/14 01:21:12;;;;;;;10.13;4.43;;;11.70;99.90;;;;;;4973666;28;95861;-76
2023/03/14 01:23:40;;;;;;;13.48;5.38;;;11.80;99.90;;;;;;4972569;28;95065;-76
2023/03/14 01:26:12;;;;;;;12.00;4.65;;;11.80;99.90;;;;;;4973756;28;97020;-76
2023/03/14 01:28:39;;;;;;;14.55;4.95;;;11.80;99.90;;;;;;4973397;28;95845;-76
2023/03/14 01:31:08;;;;;;;11.75;4.57;;;11.80;99.90;;;;;;4957365;28;95510;-76
2023/03/14 01:33:36;;;;;;;13.30;4.03;;;11.70;99.90;;;;;;4973529;28;92543;-76
2023/03/14 01:36:04;;;;;;;14.13;4.72;;;11.70;99.90;;;;;;4973970;28;92550;-76
2023/03/14 01:38:33;;;;;;;11.13;4.00;;;11.70;99.90;;;;;;4973570;28;95529;-76
2023/03/14 01:41:00;;;;;;;14.25;4.47;;;11.70;99.90;;;;;;4957344;28;95681;-76
2023/03/14 01:43:28;;;;;;;13.18;4.93;;;11.70;99.90;;;;;;4957230;28;92952;-76
2023/03/14 01:46:01;;;;;;;13.63;4.25;;;11.70;99.90;;;;;;4973422;28;92486;-76
2023/03/14 01:48:33;;;;;;;8.53;4.60;;;11.70;99.90;;;;;;4972272;28;97726;-76
2023/03/14 01:51:02;;;;;;;9.88;4.13;;;11.60;99.90;;;;;;4973523;28;95346;-75
2023/03/14 01:53:29;;;;;;;13.98;4.30;;;11.60;99.90;;;;;;4973692;28;92449;-76
2023/03/14 01:55:57;;;;;;;13.13;4.57;;;11.60;99.90;;;;;;4973534;28;92978;-76
2023/03/14 01:58:27;;;;;;;11.48;4.03;;;11.60;99.90;;;;;;4958670;28;95664;-76
2023/03/14 02:00:58;;;;;;;16.10;4.03;;;11.60;99.90;;;;;;4978045;28;93157;-76
2023/03/14 02:03:26;;;;;;;13.50;3.97;;;11.60;99.90;;;;;;4993396;28;92604;-76
2023/03/14 02:05:59;;;;;;;13.45;3.75;;;11.60;99.90;;;;;;4993511;28;92166;-76
2023/03/14 02:08:27;;;;;;;14.75;3.58;;;11.60;99.90;;;;;;4993007;28;95771;-76
2023/03/14 02:10:59;;;;;;;13.50;3.87;;;11.60;99.90;;;;;;4961030;28;95675;-76
2023/03/14 02:13:44;;;;;;;14.50;3.55;;;11.50;99.90;;;;;;4975087;28;94917;-76
2023/03/14 02:16:47;;;;;;;11.38;3.67;;;11.50;99.90;;;;;;4955870;28;92485;-76
2023/03/14 02:19:53;;;;;;;10.48;3.80;;;11.50;99.90;;;;;;4965423;28;93121;-76
2023/03/14 02:22:31;;;;;;;11.27;3.30;;;11.50;99.90;;;;;;4976313;28;94327;-76
2023/03/14 02:25:07;;;;;;;11.95;3.45;;;11.50;99.90;;;;;;4976241;28;92459;-76
2023/03/14 02:27:35;;;;;;;13.50;3.08;;;11.50;99.90;;;;;;4976175;28;92564;-76
2023/03/14 02:30:13;;;;;;;8.27;3.33;;;11.60;99.90;;;;;;4976024;28;95791;-76
2023/03/14 02:32:45;;;;;;;13.38;3.42;;;11.70;99.90;;;;;;4993008;28;95439;-76
2023/03/14 02:35:22;;;;;;;11.45;3.40;;;11.60;99.90;;;;;;4977857;28;92905;-76
2023/03/14 02:37:59;;;;;;;13.70;3.92;;;11.70;99.90;;;;;;4992345;28;92537;-74
2023/03/14 02:40:31;;;;;;;10.50;3.50;;;11.70;99.90;;;;;;4974550;28;98010;-74
2023/03/14 02:42:58;;;;;;;10.75;3.88;;;11.60;99.90;;;;;;4975807;28;98302;-74
2023/03/14 02:45:44;;;;;;;12.70;3.50;;;11.50;99.90;;;;;;4976212;28;92521;-74
2023/03/14 02:48:21;;;;;;;11.10;3.83;;;11.60;99.90;;;;;;4976746;28;92590;-74
2023/03/14 02:50:50;;;;;;;11.80;4.10;;;11.50;99.90;;;;;;4975665;28;94498;-74
2023/03/14 02:53:24;;;;;;;18.25;5.00;;;11.50;99.90;;;;;;4943782;28;94555;-74
2023/03/14 02:55:55;;;;;;;13.77;4.00;;;11.50;99.90;;;;;;4975804;28;92969;-74
2023/03/14 02:58:23;;;;;;;16.52;4.07;;;11.40;99.90;;;;;;4992972;28;91783;-76
2023/03/14 03:00:57;;;;;;;12.13;3.70;;;11.30;99.90;;;;;;4975713;28;95054;-76
2023/03/14 03:03:24;;;;;;;12.90;5.15;;;11.20;99.90;;;;;;4975187;28;95564;-76
2023/03/14 03:05:52;;;;;;;9.30;4.15;;;11.20;99.90;;;;;;4958323;28;94797;-76
2023/03/14 03:08:21;;;;;;;13.77;4.30;;;11.20;99.90;;;;;;4975906;28;92519;-76
2023/03/14 03:10:49;;;;;;;10.90;3.80;;;11.20;99.90;;;;;;4974393;28;95564;-76
2023/03/14 03:13:17;;;;;;;9.95;4.15;;;11.20;99.90;;;;;;4976860;28;93077;-76
2023/03/14 03:15:47;;;;;;;14.82;4.30;;;11.10;99.90;;;;;;4959842;28;92577;-76
2023/03/14 03:18:15;;;;;;;12.65;4.18;;;11.10;99.90;;;;;;4975386;28;92660;-76
2023/03/14 03:20:42;;;;;;;8.90;3.38;;;11.10;99.90;;;;;;4975479;28;95566;-76
2023/03/14 03:23:09;;;;;;;8.98;3.13;;;11.20;99.90;;;;;;4975602;28;95238;-76
2023/03/14 03:25:38;;;;;;;11.52;3.97;;;11.20;99.90;;;;;;4959527;28;92538;-76
2023/03/14 03:28:07;;;;;;;11.38;3.72;;;11.30;99.90;;;;;;4975276;28;93134;-76
2023/03/14 03:30:38;;;;;;;8.10;3.33;;;11.20;99.90;;;;;;4973661;28;97951;-76
2023/03/14 03:33:06;;;;;;;8.30;3.40;;;11.20;99.90;;;;;;4958639;28;97607;-76
2023/03/14 03:35:33;;;;;;;7.13;2.88;;;11.20;99.90;;;;;;4975429;28;92487;-76
2023/03/14 03:38:01;;;;;;;7.90;3.25;;;11.30;99.90;;;;;;4958975;28;92568;-76
2023/03/14 03:40:28;;;;;;;11.38;3.35;;;11.20;99.90;;;;;;4975121;28;95479;-76
2023/03/14 03:42:55;;;;;;;7.13;3.03;;;11.20;99.90;;;;;;4958508;28;95516;-76
2023/03/14 03:45:22;;;;;;;7.15;2.85;;;11.20;99.90;;;;;;4959053;28;92462;-76
2023/03/14 03:47:54;;;;;;;7.10;3.05;;;11.20;99.90;;;;;;4976276;28;91758;-76
2023/03/14 03:50:22;;;;;;;7.22;2.85;;;11.20;99.90;;;;;;4975185;28;93258;-76
2023/03/14 03:52:49;;;;;;;8.90;4.03;;;11.20;99.90;;;;;;4958643;28;95895;-76
2023/03/14 03:55:16;;;;;;;9.60;3.60;;;11.20;99.90;;;;;;4973719;28;95018;-76
2023/03/14 03:57:45;;;;;;;7.00;3.42;;;11.20;99.90;;;;;;4959233;28;92517;-76
2023/03/14 04:00:12;;;;;;;6.07;3.20;;;11.20;99.90;;;;;;4974445;28;95558;-76
2023/03/14 04:02:42;;;;;;;8.30;3.65;;;11.10;99.90;;;;;;4973386;28;92582;-76
2023/03/14 04:05:13;;;;;;;8.73;4.05;;;11.20;99.90;;;;;;4974608;28;92386;-76
2023/03/14 04:07:46;;;;;;;10.88;4.53;;;11.10;99.90;;;;;;4974810;28;92963;-76
2023/03/14 04:10:17;;;;;;;8.23;3.20;;;11.20;99.90;;;;;;4958682;28;95319;-76
2023/03/14 04:12:58;;;;;;;7.47;3.67;;;11.10;99.90;;;;;;4974906;28;95408;-76
2023/03/14 04:15:28;;;;;;;7.95;3.97;;;11.10;99.90;;;;;;4974749;28;92548;-76
2023/03/14 04:17:59;;;;;;;9.07;3.67;;;11.10;99.90;;;;;;4974773;28;92505;-76
2023/03/14 04:20:26;;;;;;;10.05;3.50;;;11.20;99.90;;;;;;4973298;28;97965;-76
2023/03/14 04:22:54;;;;;;;12.88;4.63;;;11.10;99.90;;;;;;4974960;28;97323;-76
2023/03/14 04:25:21;;;;;;;8.48;3.97;;;11.10;99.90;;;;;;4974581;28;92602;-76
2023/03/14 04:27:53;;;;;;;8.30;4.30;;;11.10;99.90;;;;;;4974647;28;92535;-76
2023/03/14 04:30:23;;;;;;;11.00;4.13;;;11.10;99.90;;;;;;4974456;28;95624;-76
2023/03/14 04:32:53;;;;;;;8.45;3.97;;;11.10;99.90;;;;;;4974257;28;94101;-76
2023/03/14 04:35:23;;;;;;;13.30;4.03;;;11.00;99.90;;;;;;4974489;28;92501;-76
2023/03/14 04:37:54;;;;;;;13.85;4.68;;;11.00;99.90;;;;;;4959091;28;91775;-76
2023/03/14 04:40:22;;;;;;;9.52;3.25;;;11.00;99.90;;;;;;4974289;28;95599;-76
2023/03/14 04:42:52;;;;;;;8.82;3.42;;;11.00;99.90;;;;;;4990752;28;96381;-76
2023/03/14 04:45:20;;;;;;;13.15;4.13;;;11.00;99.90;;;;;;4973045;28;94945;-76
2023/03/14 04:47:47;;;;;;;8.52;3.28;;;11.00;99.90;;;;;;4974206;28;92520;-76
2023/03/14 04:50:17;;;;;;;9.45;3.53;;;11.00;99.90;;;;;;4973966;28;95885;-76
2023/03/14 04:52:45;;;;;;;15.57;3.53;;;11.00;99.90;;;;;;4974148;28;95049;-76
2023/03/14 04:55:12;;;;;;;8.75;3.38;;;11.00;99.90;;;;;;4974343;28;92495;-76
2023/03/14 04:57:39;;;;;;;8.07;3.20;;;11.00;99.90;;;;;;4990760;28;92604;-76
2023/03/14 05:00:09;;;;;;;6.90;3.70;;;11.00;99.90;;;;;;4973456;28;95815;-76
2023/03/14 05:02:59;;;;;;;8.57;4.18;;;10.90;99.90;;;;;;4974805;28;94154;-76
2023/03/14 05:05:52;;;;;;;9.05;4.95;;;10.90;99.90;;;;;;4972154;28;92637;-76
2023/03/14 05:08:52;;;;;;;11.00;4.25;;;10.80;99.90;;;;;;4952688;28;92651;-76
2023/03/14 05:11:45;;;;;;;13.10;4.75;;;10.90;99.90;;;;;;4969236;28;96415;-76
2023/03/14 05:14:30;;;;;;;9.38;4.00;;;10.80;99.90;;;;;;4960113;28;96866;-76
2023/03/14 05:17:19;;;;;;;9.57;3.70;;;10.80;99.90;;;;;;4973976;28;92643;-76
2023/03/14 05:20:12;;;;;;;7.00;3.47;;;10.70;99.90;;;;;;4969357;28;92450;-76
2023/03/14 05:22:58;;;;;;;9.07;5.07;;;10.70;99.90;;;;;;4976566;28;95611;-76
2023/03/14 05:25:44;;;;;;;9.27;4.55;;;10.70;99.90;;;;;;4972492;28;92562;-76
2023/03/14 05:28:29;;;;;;;10.05;4.78;;;10.70;99.90;;;;;;4974713;28;92574;-76
2023/03/14 05:31:22;;;;;;;13.02;5.30;;;10.70;99.90;;;;;;4973209;28;92295;-76
2023/03/14 05:34:03;;;;;;;8.65;4.88;;;10.70;99.90;;;;;;4977952;28;93057;-76
2023/03/14 05:36:39;;;;;;;10.10;4.70;;;10.70;99.90;;;;;;4946927;28;95349;-76
2023/03/14 05:39:38;;;;;;;9.38;4.07;;;10.70;99.90;;;;;;4951715;28;94845;-76
2023/03/14 05:42:26;;;;;;;9.70;5.15;;;10.70;99.90;;;;;;4977085;28;93474;-76
2023/03/14 05:45:16;;;;;;;12.38;4.40;;;10.70;99.90;;;;;;4971759;28;93076;-76
2023/03/14 05:48:03;;;;;;;6.47;3.70;;;10.70;99.90;;;;;;4978267;28;93722;-76
2023/03/14 05:50:42;;;;;;;8.25;4.00;;;10.70;99.90;;;;;;4948164;28;93334;-76
2023/03/14 05:53:37;;;;;;;9.35;4.60;;;10.70;99.90;;;;;;4976913;28;92532;-76
2023/03/14 05:56:33;;;;;;;12.05;4.53;;;10.70;99.90;;;;;;4977153;28;93212;-76
2023/03/14 05:59:09;;;;;;;10.48;4.72;;;10.70;99.90;;;;;;4976888;28;95475;-76
2023/03/14 06:01:57;;;;;;;9.90;4.55;;;10.70;99.90;;;;;;4976316;28;92553;-76
2023/03/14 06:04:26;;;;;;;15.05;5.00;;;10.70;99.90;;;;;;4976492;28;92520;-76
2023/03/14 06:06:57;;;;;;;9.38;4.20;;;10.70;99.90;;;;;;4975137;28;97509;-76
2023/03/14 06:09:25;;;;;;;6.18;4.50;;;10.70;99.90;;;;;;4976403;28;97931;-76
2023/03/14 06:11:55;;;;;;;8.52;4.00;;;10.70;99.90;;;;;;4961293;28;92802;-76
2023/03/14 06:14:22;;;;;;;11.07;4.30;;;10.70;99.90;;;;;;4976302;28;92599;-76
2023/03/14 06:16:52;;;;;;;8.45;4.63;;;10.70;99.90;;;;;;4960373;28;95671;-76
2023/03/14 06:19:21;;;;;;;10.77;4.28;;;10.80;99.90;;;;;;4976077;28;95386;-76
2023/03/14 06:21:48;;;;;;;11.95;4.43;;;10.80;99.90;;;;;;4976607;28;93251;-76
2023/03/14 06:24:15;;;;;;;7.32;4.35;;;10.80;99.90;;;;;;4976928;28;91832;-76
2023/03/14 06:26:46;;;;;;;11.82;4.65;;;10.80;99.90;;;;;;4944846;28;95764;-76
2023/03/14 06:29:14;;;;;;;8.73;3.63;;;10.80;99.90;;;;;;4975907;28;95564;-76
2023/03/14 06:31:41;;;;;;;7.75;3.97;;;10.80;99.90;;;;;;4959176;28;94860;-76
2023/03/14 06:34:09;;;;;;;8.70;4.47;;;10.70;99.90;;;;;;4975887;28;92980;-76
2023/03/14 06:36:35;;;;;;;9.85;4.07;;;10.70;99.90;;;;;;4975988;28;95809;-76
2023/03/14 06:39:02;;;;;;;10.25;3.92;;;10.70;99.90;;;;;;4943697;28;95351;-76
2023/03/14 06:41:32;;;;;;;9.15;3.75;;;10.70;99.90;;;;;;4976026;28;92445;-76
2023/03/14 06:44:00;;;;;;;12.77;3.95;;;10.80;99.90;;;;;;4992589;28;92879;-76
2023/03/14 06:46:27;;;;;;;6.60;3.10;;;10.90;99.90;;;;;;4975664;28;95675;-76
2023/03/14 06:48:54;;;;;;;9.55;3.50;;;10.90;99.90;;;;;;4992845;28;94924;-76
2023/03/14 06:51:21;;;;;;;9.40;3.67;;;10.90;99.90;;;;;;4975560;28;92599;-76
2023/03/14 06:53:49;;;;;;;8.55;3.45;;;10.90;99.90;;;;;;4976173;28;92492;-76
2023/03/14 06:56:18;;;;;;;5.80;3.03;;;11.00;99.90;;;;;;4974634;28;98103;-76
2023/03/14 06:58:46;;;;;;;5.47;3.42;;;11.00;99.90;;;;;;4975584;28;97617;-76
2023/03/14 07:01:23;;;;;;;6.97;3.53;;;11.00;99.90;;;;;;4975206;28;92537;-76
2023/03/14 07:03:51;;;;;;;8.07;3.80;;;11.00;99.90;;;;;;4992299;28;93068;-76
2023/03/14 07:06:19;;;;;;;8.60;3.72;;;11.00;99.90;;;;;;4959327;28;95504;-76
2023/03/14 07:08:47;;;;;;;8.60;3.35;;;11.00;99.90;;;;;;4975582;28;95317;-76
2023/03/14 07:11:16;;;;;;;7.18;3.10;;;11.00;99.90;;;;;;4959768;28;92454;-76
2023/03/14 07:13:43;;;;;;;10.80;3.83;;;11.10;99.90;;;;;;4959532;28;92011;-76
2023/03/14 07:16:10;;;;;;;6.22;3.53;;;11.10;99.90;;;;;;4959485;28;96080;-76
2023/03/14 07:18:38;;;;;;;7.90;3.42;;;11.10;99.90;;;;;;4959080;28;95656;-76
2023/03/14 07:21:09;;;;;;;6.47;3.38;;;11.10;99.90;;;;;;4974385;28;95493;-76
2023/03/14 07:23:37;;;;;;;10.43;3.67;;;11.10;99.90;;;;;;4975698;28;92559;-76
2023/03/14 07:26:05;;;;;;;5.57;3.03;;;11.10;99.90;;;;;;4975006;28;94992;-76
2023/03/14 07:28:34;;;;;;;7.15;2.13;;;11.00;99.90;;;;;;4975240;28;95729;-76
2023/03/14 07:31:07;;;;;;;2.28;0.88;;;10.70;99.90;;;;;;4944561;28;92474;-76
2023/03/14 07:33:34;;;;;;;5.30;1.40;;;9.90;99.90;;;;;;4975270;28;92497;-76
2023/03/14 07:36:03;;;;;;;4.05;1.35;;;9.40;99.90;;;;;;4942855;28;95408;-76
2023/03/14 07:38:30;;;;;;;8.45;2.25;;;8.80;99.90;;;;;;4975271;28;95688;-76
2023/03/14 07:41:13;;;;;;;4.65;1.20;;;8.50;99.90;;;;;;4976747;28;92845;-76
2023/03/14 07:43:47;;;;;;;10.35;1.92;;;8.10;99.90;;;;;;4975146;28;92471;-75
2023/03/14 07:46:14;;;;;;;4.03;1.08;;;7.70;99.90;;;;;;4974051;28;98192;-75
2023/03/14 07:48:41;;;;;;;5.78;1.30;;;7.50;99.90;;;;;;4974723;28;95371;-75
2023/03/14 07:51:08;;;;;;;6.20;1.08;;;7.30;99.90;;;;;;4958928;28;92480;-75
2023/03/14 07:53:35;;;;;;;8.73;1.35;;;7.10;99.90;;;;;;4974715;28;92560;-75
2023/03/14 07:56:02;;;;;;;4.05;0.80;;;6.90;99.90;;;;;;4976080;28;92917;-75
2023/03/14 07:58:29;;;;;;;1.75;0.60;;;6.60;99.90;;;;;;4958360;28;95561;-74
2023/03/14 08:00:58;;;;;;;2.30;1.00;;;6.40;99.90;;;;;;4958675;28;92432;-75
2023/03/14 08:03:25;;;;;;;3.00;0.80;;;6.30;99.90;;;;;;4975928;28;91731;-74
2023/03/14 08:05:53;;;;;;;6.22;1.02;;;6.10;99.90;;;;;;4975864;28;92353;-75
2023/03/14 08:08:20;;;;;;;4.90;1.05;;;5.90;99.90;;;;;;4976028;28;92503;-74
2023/03/14 08:10:47;;;;;;;3.80;1.02;;;5.70;99.90;;;;;;4957374;28;95439;-75
2023/03/14 08:13:14;;;;;;;2.47;0.88;;;5.50;99.90;;;;;;4976297;28;92515;-75
2023/03/14 08:15:41;;;;;;;1.60;0.60;;;5.40;99.90;;;;;;4974332;28;101096;-75
2023/03/14 08:18:08;;;;;;;2.60;1.15;;;5.30;99.90;;;;;;4975917;28;93170;-75
2023/03/14 08:20:35;;;;;;;2.28;1.27;;;5.20;99.90;;;;;;4974511;28;92712;-75
2023/03/14 08:23:02;;;;;;;0.93;0.90;;;5.00;99.90;;;;;;4976221;28;92776;-76
2023/03/14 08:25:29;;;;;;;1.30;1.05;;;4.90;99.90;;;;;;4974426;28;95732;-77
2023/03/14 08:27:57;;;;;;;2.85;0.60;;;4.80;99.90;;;;;;4974926;28;95514;-76
2023/03/14 08:30:24;;;;;;;1.55;0.70;;;4.80;99.90;;;;;;4976094;28;92379;-76
2023/03/14 08:32:51;;;;;;;1.38;0.65;;;4.90;99.90;;;;;;4974476;28;92528;-75
2023/03/14 08:35:18;;;;;;;0.73;0.60;;;4.90;99.90;;;;;;4973080;28;97367;-75
2023/03/14 08:37:46;;;;;;;3.00;0.50;;;4.90;99.90;;;;;;4975670;28;95111;-75
2023/03/14 08:40:13;;;;;;;3.10;0.70;;;5.00;99.90;;;;;;4975932;28;92424;-75
2023/03/14 08:42:41;;;;;;;0.95;0.40;;;5.00;99.90;;;;;;4974613;28;92551;-74
2023/03/14 08:45:10;;;;;;;0.73;0.57;;;5.00;99.90;;;;;;4975823;28;92463;-75
2023/03/14 08:47:37;;;;;;;1.45;0.65;;;5.00;99.90;;;;;;4975411;28;93016;-75
2023/03/14 08:50:05;;;;;;;2.10;0.52;;;5.10;99.90;;;;;;4974457;28;92604;-75
2023/03/14 08:52:32;;;;;;;3.50;0.95;;;5.10;99.90;;;;;;4974591;28;91770;-75
2023/03/14 08:55:00;;;;;;;0.75;0.40;;;5.10;99.90;;;;;;4974321;28;93060;-75
2023/03/14 08:57:27;;;;;;;1.88;0.63;;;5.10;99.90;;;;;;4975565;28;93075;-75
2023/03/14 08:59:55;;;;;;;2.28;0.63;;;5.20;99.90;;;;;;4972784;28;94860;-75
2023/03/14 09:02:24;;;;;;;0.50;0.47;;;5.20;99.90;;;;;;4975250;28;93119;-75
2023/03/14 09:04:51;;;;;;;1.85;0.43;;;5.10;99.90;;;;;;4975612;28;93278;-75
2023/03/14 09:07:18;;;;;;;2.22;0.70;;;5.20;99.90;;;;;;4973988;28;106167;-75
2023/03/14 09:09:45;;;;;;;2.13;0.60;;;5.30;99.90;;;;;;4978924;28;92390;-75
2023/03/14 09:12:12;;;;;;;1.20;0.60;;;5.40;99.90;;;;;;4977878;28;92481;-75
2023/03/14 09:14:39;;;;;;;1.70;0.60;;;5.50;99.90;;;;;;4978396;28;93253;-75
2023/03/14 09:17:07;;;;;;;2.65;0.95;;;5.50;99.90;;;;;;4977993;28;93086;-75
2023/03/14 09:19:34;;;;;;;3.67;0.70;;;5.60;99.90;;;;;;4977796;28;92469;-75
2023/03/14 09:22:01;;;;;;;0.70;0.70;;;5.60;99.90;;;;;;4977340;28;93171;-75
2023/03/14 09:24:29;;;;;;;2.47;0.75;;;5.70;99.90;;;;;;4976183;28;98165;-75
2023/03/14 09:26:56;;;;;;;6.90;0.80;;;5.70;99.90;;;;;;4977167;28;95449;-75
2023/03/14 09:29:24;;;;;;;4.10;1.17;;;5.80;99.90;;;;;;4977612;28;92467;-75
2023/03/14 09:31:51;;;;;;;5.82;1.40;;;5.80;99.90;;;;;;4977031;28;96198;-75
2023/03/14 09:34:18;;;;;;;2.53;0.90;;;5.80;99.90;;;;;;4977293;28;94266;-75
2023/03/14 09:36:45;;;;;;;7.57;1.42;;;5.80;99.90;;;;;;4978107;28;92884;-75
2023/03/14 09:39:12;;;;;;;5.70;1.17;;;5.80;99.90;;;;;;4977233;28;92607;-75
2023/03/14 09:41:42;;;;;;;5.78;1.60;;;5.90;99.90;;;;;;4977205;28;91870;-75
2023/03/14 09:44:26;;;;;;;7.00;1.95;;;5.90;99.90;;;;;;4978378;28;93185;-75
2023/03/14 09:46:57;;;;;;;3.80;1.27;;;6.00;99.90;;;;;;4976819;28;95591;-75
2023/03/14 09:49:28;;;;;;;4.15;1.25;;;6.10;99.90;;;;;;4977533;28;94759;-75
2023/03/14 09:51:58;;;;;;;9.98;2.47;;;6.20;99.90;;;;;;4978396;28;92462;-75
2023/03/14 09:54:42;;;;;;;12.20;2.47;;;6.30;99.90;;;;;;4976755;28;94936;-75
2023/03/14 09:57:18;;;;;;;7.73;1.73;;;6.40;99.90;;;;;;4976937;28;93827;-75
2023/03/14 09:59:48;;;;;;;11.13;1.60;;;6.60;99.90;;;;;;4977196;28;92778;-75
2023/03/14 10:02:19;;;;;;;9.60;1.92;;;6.80;99.90;;;;;;4978027;28;92447;-75
2023/03/14 10:04:48;;;;;;;7.72;1.55;;;6.90;99.90;;;;;;4976612;28;93486;-75
2023/03/14 10:07:38;;;;;;;7.70;1.85;;;6.90;99.90;;;;;;4977111;28;92972;-75
2023/03/14 10:10:20;;;;;;;6.95;1.70;;;6.90;99.90;;;;;;4976975;28;92506;-75
2023/03/14 10:12:56;;;;;;;6.72;1.73;;;6.90;99.90;;;;;;4977054;28;92483;-75
2023/03/14 10:15:31;;;;;;;13.25;1.98;;;7.00;99.90;;;;;;4975548;28;95758;-75
2023/03/14 10:18:01;;;;;;;11.35;1.95;;;7.00;99.90;;;;;;4974890;28;98064;-75
2023/03/14 10:20:33;;;;;;;7.57;1.98;;;7.00;99.90;;;;;;4976470;28;92499;-75
2023/03/14 10:23:05;;;;;;;8.40;2.00;;;7.10;99.90;;;;;;4976655;28;92355;-75
2023/03/14 10:25:34;;;;;;;13.23;2.67;;;7.20;99.90;;;;;;4976331;28;92491;-75
2023/03/14 10:28:03;;;;;;;11.35;2.35;;;7.20;99.90;;;;;;4991524;28;96177;-75
2023/03/14 10:30:46;;;;;;;7.97;2.83;;;7.30;99.90;;;;;;4976591;28;92458;-75
2023/03/14 10:33:26;;;;;;;10.40;2.20;;;7.30;99.90;;;;;;4977172;28;91620;-75
2023/03/14 10:36:02;;;;;;;10.32;2.33;;;7.50;99.90;;;;;;4975831;28;93176;-76
2023/03/14 10:38:35;;;;;;;8.18;1.75;;;7.50;99.90;;;;;;4974944;28;95994;-76
2023/03/14 10:41:14;;;;;;;10.93;2.60;;;7.40;99.90;;;;;;4990154;28;94898;-76
2023/03/14 10:43:41;;;;;;;10.35;2.03;;;7.40;99.90;;;;;;4975429;28;92441;-76
2023/03/14 10:46:19;;;;;;;12.02;2.67;;;7.20;99.90;;;;;;4958574;28;95844;-76
2023/03/14 10:49:06;;;;;;;10.30;2.78;;;7.10;99.90;;;;;;4974039;28;92477;-76
2023/03/14 10:51:33;;;;;;;16.13;2.90;;;7.10;99.90;;;;;;4976343;28;92435;-76
2023/03/14 10:54:13;;;;;;;7.82;1.85;;;7.10;99.90;;;;;;4974573;28;92492;-75
2023/03/14 10:56:40;;;;;;;10.77;2.90;;;7.20;99.90;;;;;;4976091;28;92474;-75
2023/03/14 10:59:13;;;;;;;12.55;2.55;;;7.30;99.90;;;;;;4974618;28;95567;-75
2023/03/14 11:02:11;;;;;;;5.00;1.80;;;7.40;99.90;;;;;;4975341;28;93030;-75
2023/03/14 11:04:51;;;;;;;7.97;1.90;;;7.50;99.90;;;;;;4934037;28;1191721;-75
2023/03/14 11:07:37;;;;;;;8.98;2.03;;;7.60;99.90;;;;;;4975751;28;95652;-75
2023/03/14 11:10:29;;;;;;;8.30;2.13;;;7.80;99.90;;;;;;4976937;28;95471;-75
2023/03/14 11:13:20;;;;;;;6.57;1.55;;;7.90;99.90;;;;;;4975674;28;92607;-75
2023/03/14 11:15:57;;;;;;;8.68;2.47;;;8.00;99.90;;;;;;4977266;28;92438;-76
2023/03/14 11:18:55;;;;;;;8.70;1.85;;;8.00;99.90;;;;;;4977230;28;93204;-76
2023/03/14 11:21:52;;;;;;;5.50;1.95;;;8.00;99.90;;;;;;4959293;28;95803;-76
2023/03/14 11:24:44;;;;;;;8.73;2.05;;;8.00;99.90;;;;;;4975499;28;92407;-76
2023/03/14 11:27:18;;;;;;;9.43;1.77;;;8.10;99.90;;;;;;4976015;28;91844;-75
2023/03/14 11:29:59;;;;;;;6.07;1.50;;;8.20;99.90;;;;;;4976364;28;93368;-75
2023/03/14 11:32:47;;;;;;;9.63;1.73;;;8.30;99.90;;;;;;4974953;28;95590;-75
2023/03/14 11:35:17;;;;;;;3.25;1.60;;;8.40;99.90;;;;;;4975799;28;94977;-75
2023/03/14 11:37:52;;;;;;;5.63;2.35;;;8.40;99.90;;;;;;4976730;28;92831;-75
2023/03/14 11:40:26;;;;;;;8.20;1.33;;;8.30;99.90;;;;;;4974993;28;94218;-75
2023/03/14 11:43:13;;;;;;;5.13;1.23;;;8.30;99.90;;;;;;4976616;28;93011;-76
2023/03/14 11:45:42;;;;;;;5.88;1.50;;;8.20;99.30;;;;;;4975812;28;92575;-76
2023/03/14 11:48:34;;;;;;;8.90;1.80;;;8.10;99.70;;;;;;4974879;28;92473;-76
2023/03/14 11:51:07;;;;;;;5.40;1.40;;;8.30;99.70;;;;;;4974908;28;95706;-76
2023/03/14 11:53:47;;;;;;;3.03;1.02;;;8.40;99.60;;;;;;4975570;28;93037;-76
2023/03/14 11:56:43;;;;;;;2.67;0.95;;;8.70;97.30;;;;;;4976320;28;92442;-76
2023/03/14 11:59:49;;;;;;;1.88;0.90;;;8.80;97.00;;;;;;4971187;28;92446;-76
2023/03/14 12:02:23;;;;;;;3.35;1.45;;;8.90;97.90;;;;;;4972782;28;97452;-76
2023/03/14 12:05:27;;;;;;;5.82;1.45;;;8.70;96.00;;;;;;4976095;28;95601;-76
2023/03/14 12:08:28;;;;;;;5.93;1.40;;;8.50;94.60;;;;;;4976313;28;92653;-75
2023/03/14 12:11:01;;;;;;;7.32;1.17;;;8.60;94.90;;;;;;4975076;28;92382;-75
2023/03/14 12:13:32;;;;;;;3.43;1.00;;;8.50;93.60;;;;;;4976384;28;93187;-75
2023/03/14 12:16:05;;;;;;;3.65;0.88;;;8.40;93.30;;;;;;4974957;28;92566;-75
2023/03/14 12:18:41;;;;;;;4.00;1.02;;;8.50;93.90;;;;;;4976243;28;92505;-75
2023/03/14 12:21:11;;;;;;;5.68;1.20;;;8.40;92.90;;;;;;4976465;28;91798;-75
2023/03/14 12:23:47;;;;;;;2.92;1.15;;;8.40;92.50;;;;;;4974437;28;95874;-75
2023/03/14 12:26:16;;;;;;;5.30;1.30;;;8.50;92.70;;;;;;4975678;28;92371;-75
2023/03/14 12:29:14;;;;;;;4.85;1.20;;;8.70;93.50;;;;;;4974915;28;94908;-75
2023/03/14 12:31:42;;;;;;;4.63;1.10;;;8.60;91.90;;;;;;4975962;28;92514;-75
2023/03/14 12:34:09;;;;;;;4.00;1.20;;;8.60;93.70;;;;;;4975341;28;93129;-75
2023/03/14 12:36:49;;;;;;;5.03;1.77;;;8.60;94.10;;;;;;4974021;28;94697;-75
2023/03/14 12:39:25;;;;;;;3.28;1.00;;;8.60;93.80;;;;;;4957920;28;92415;-75
2023/03/14 12:42:04;;;;;;;5.88;1.27;;;8.60;93.30;;;;;;4975605;28;92363;-75
2023/03/14 12:44:31;;;;;;;6.13;1.30;;;8.80;94.70;;;;;;4974466;28;94003;-75
2023/03/14 12:47:20;;;;;;;6.78;1.67;;;9.20;93.20;;;;;;4975940;28;97764;-75
2023/03/14 12:49:55;;;;;;;4.70;1.10;;;9.40;92.40;;;;;;4975834;28;92769;-75
2023/03/14 12:52:29;;;;;;;6.75;1.30;;;9.40;92.20;;;;;;4975656;28;92374;-75
2023/03/14 12:55:20;;;;;;;8.98;1.40;;;9.50;93.60;;;;;;4974415;28;95587;-75
2023/03/14 12:58:07;;;;;;;4.55;1.40;;;9.40;93.00;;;;;;4973773;28;96261;-75
2023/03/14 13:00:40;;;;;;;6.13;1.40;;;9.20;93.20;;;;;;4975946;28;92467;-75
2023/03/14 13:03:26;;;;;;;6.53;1.40;;;9.20;94.30;;;;;;4973666;28;92422;-75
2023/03/14 13:05:54;;;;;;;11.10;1.50;;;9.20;95.20;;;;;;4975777;28;93166;-75
2023/03/14 13:08:36;;;;;;;9.43;1.40;;;9.20;95.70;;;;;;4975120;28;93065;-75
2023/03/14 13:11:10;;;;;;;5.78;1.85;;;9.10;94.70;;;;;;4975864;28;92413;-75
2023/03/14 13:13:42;;;;;;;6.82;1.42;;;9.00;95.20;;;;;;4976037;28;91693;-75
2023/03/14 13:16:15;;;;;;;6.30;1.50;;;8.90;95.40;;;;;;4973673;28;95856;-75
2023/03/14 13:18:48;;;;;;;6.07;1.90;;;8.80;96.80;;;;;;4975066;28;93166;-75